19mayis — TCTU4 — position and weather

sailwx.info

Track history (hours):
 
Tides and Currents Weather Stations Pressure Air Temp Water Temp Dewpoint Dewpoint Depression Visibility Wind Speed Wind Dir Waves Ship Positions

19mayis

Last reported at 2014-Feb-05 04:33 UTC. Time now 2014-Dec-20 05:50 UTC.
Position N 38°09' W 009°43'.
Warning: this ship's position is months out of date.

Length 113 m; draft 7.2 m.

Type: Cargo ship. MMSI: 271043012.

Date/timePositionNaut miles runAvg speedWind from/ knotsBaromVisibWave heightAir tempDewpointWater temp
2014-Feb-05 04:33N 38°09' W 009°43'5 5.1
2014-Feb-05 03:33N 38°04' W 009°43'4 4.3
2014-Feb-05 02:33N 38°00' W 009°42'5 4.5
2014-Feb-05 01:33N 37°56' W 009°40'4 4.3
2014-Feb-05 00:33N 37°52' W 009°39'4 4.4
2014-Feb-04 23:33N 37°48' W 009°37'5 4.9
2014-Feb-04 22:33N 37°43' W 009°36'5 4.9
2014-Feb-04 21:33N 37°38' W 009°34'7 5.5
2014-Feb-04 20:18N 37°31' W 009°31'60 6.1
2014-Feb-04 10:23N 36°41' W 008°51'6 7.2
2014-Feb-04 09:33N 36°39' W 008°44'7 7.1
2014-Feb-04 08:32N 36°37' W 008°36'  
2014-Jan-29 02:33N 36°53' E 013°38'5 5.5
2014-Jan-29 01:33N 36°51' E 013°44'5 5.4
2014-Jan-29 00:33N 36°50' E 013°51'5 5.3
2014-Jan-28 23:33N 36°49' E 013°57'7 6.8
2014-Jan-28 22:33N 36°47' E 014°05'6 6.5
2014-Jan-28 21:33N 36°45' E 014°13'6 6.2
2014-Jan-28 20:33N 36°43' E 014°21'11 5.4
2014-Jan-28 18:33N 36°40' E 014°34'  
Track history (hours):
 
Tides and Currents Weather Stations Pressure Air Temp Water Temp Dewpoint Dewpoint Depression Visibility Wind Speed Wind Dir Waves Ship Positions

19mayis

Last reported at 2014-Feb-05 04:33 UTC. Time now 2014-Dec-20 05:50 UTC.
Position N 38°09' W 009°43'.
Warning: this ship's position is months out of date.

Length 113 m; draft 7.2 m.

Type: Cargo ship. MMSI: 271043012.

Date/timePositionNaut miles runAvg speedWind from/ knotsBaromVisibWave heightAir tempDewpointWater temp
2014-Feb-05 04:33N 38°09' W 009°43'5 5.1
2014-Feb-05 03:33N 38°04' W 009°43'4 4.3
2014-Feb-05 02:33N 38°00' W 009°42'5 4.5
2014-Feb-05 01:33N 37°56' W 009°40'4 4.3
2014-Feb-05 00:33N 37°52' W 009°39'4 4.4
2014-Feb-04 23:33N 37°48' W 009°37'5 4.9
2014-Feb-04 22:33N 37°43' W 009°36'5 4.9
2014-Feb-04 21:33N 37°38' W 009°34'7 5.5
2014-Feb-04 20:18N 37°31' W 009°31'60 6.1
2014-Feb-04 10:23N 36°41' W 008°51'6 7.2
2014-Feb-04 09:33N 36°39' W 008°44'7 7.1
2014-Feb-04 08:32N 36°37' W 008°36'  
2014-Jan-29 02:33N 36°53' E 013°38'5 5.5
2014-Jan-29 01:33N 36°51' E 013°44'5 5.4
2014-Jan-29 00:33N 36°50' E 013°51'5 5.3
2014-Jan-28 23:33N 36°49' E 013°57'7 6.8
2014-Jan-28 22:33N 36°47' E 014°05'6 6.5
2014-Jan-28 21:33N 36°45' E 014°13'6 6.2
2014-Jan-28 20:33N 36°43' E 014°21'11 5.4
2014-Jan-28 18:33N 36°40' E 014°34'  

Dump ship's entire track history